createdAt,value
2018-03-30T00:15:47.649Z,4.60
2018-03-30T00:20:51.118Z,4.80
2018-03-30T00:25:54.220Z,4.90
2018-03-30T00:30:57.312Z,4.90
2018-03-30T00:36:01.172Z,4.90
2018-03-30T00:41:04.260Z,4.90
2018-03-30T00:51:13.349Z,4.90
2018-03-30T00:56:16.458Z,5.00
2018-03-30T01:06:25.116Z,5.80
2018-03-30T01:11:28.181Z,6.00
2018-03-30T01:16:32.052Z,5.90
2018-03-30T01:21:35.912Z,5.70
2018-03-30T01:26:40.132Z,5.60
2018-03-30T01:31:43.201Z,5.50
2018-03-30T01:36:46.289Z,5.60
2018-03-30T01:41:50.147Z,5.90
2018-03-30T01:46:53.987Z,6.10
2018-03-30T01:57:02.257Z,6.20
2018-03-30T02:02:06.100Z,6.20
2018-03-30T02:07:10.310Z,6.20
2018-03-30T02:12:14.164Z,6.20
2018-03-30T02:22:23.103Z,6.00
2018-03-30T02:32:31.830Z,5.90
2018-03-30T02:37:35.710Z,5.80
2018-03-30T02:42:40.307Z,5.70
2018-03-30T02:47:44.186Z,5.70
2018-03-30T02:52:48.029Z,5.70
2018-03-30T02:57:51.560Z,5.70
2018-03-30T03:02:54.653Z,5.80
2018-03-30T03:13:03.429Z,5.80
2018-03-30T03:18:06.512Z,5.80
2018-03-30T03:23:10.373Z,5.70
2018-03-30T03:28:14.360Z,5.70
2018-03-30T03:33:17.452Z,5.80
2018-03-30T03:38:20.541Z,5.90
2018-03-30T03:43:24.392Z,5.80
2018-03-30T03:48:27.861Z,5.70
2018-03-30T03:53:32.206Z,5.80
2018-03-30T04:03:40.541Z,5.70
2018-03-30T04:13:49.523Z,5.80
2018-03-30T04:18:52.599Z,5.80
2018-03-30T04:23:55.703Z,5.70
2018-03-30T04:28:59.552Z,5.70
2018-03-30T04:39:07.038Z,5.60
2018-03-30T04:44:11.251Z,5.60
2018-03-30T04:49:14.343Z,5.60
2018-03-30T04:54:17.423Z,5.70
2018-03-30T04:59:20.510Z,5.60
2018-03-30T05:04:24.744Z,5.60
2018-03-30T05:09:27.820Z,5.70
2018-03-30T05:24:40.154Z,5.80
2018-03-30T05:34:48.798Z,5.70
2018-03-30T05:39:51.851Z,5.70
2018-03-30T05:44:54.932Z,5.80
2018-03-30T05:55:02.436Z,5.90
2018-03-30T06:00:07.614Z,6.00
2018-03-30T06:10:15.112Z,6.40
2018-03-30T06:20:23.048Z,7.20
2018-03-30T06:25:26.132Z,7.50
2018-03-30T06:30:29.971Z,7.50
2018-03-30T06:35:33.042Z,7.50
2018-03-30T06:40:36.515Z,7.60
2018-03-30T06:45:41.116Z,7.90
2018-03-30T06:55:50.219Z,8.80
2018-03-30T07:00:54.062Z,8.80
2018-03-30T07:11:03.614Z,10.00
2018-03-30T07:16:06.719Z,11.10
2018-03-30T07:21:10.545Z,12.00
2018-03-30T07:26:14.815Z,11.80
2018-03-30T07:31:18.300Z,11.60
2018-03-30T07:41:26.219Z,12.00
2018-03-30T07:46:29.692Z,12.40
2018-03-30T07:56:37.259Z,12.70
2018-03-30T08:01:41.112Z,13.10
2018-03-30T08:06:45.330Z,13.50
2018-03-30T08:11:49.171Z,14.30
2018-03-30T08:16:52.255Z,14.50
2018-03-30T08:21:55.342Z,14.20
2018-03-30T08:26:59.546Z,13.30
2018-03-30T08:32:03.407Z,14.00
2018-03-30T08:42:11.748Z,13.00
2018-03-30T08:47:15.240Z,14.20
2018-03-30T08:52:18.333Z,14.60
2018-03-30T08:57:21.415Z,13.50
2018-03-30T09:02:24.511Z,13.90
2018-03-30T09:07:27.591Z,14.80
2018-03-30T09:12:32.087Z,14.40
2018-03-30T09:17:35.174Z,14.90
2018-03-30T09:22:38.660Z,14.90
2018-03-30T09:32:46.603Z,15.20
2018-03-30T09:37:50.810Z,14.70
2018-03-30T09:42:54.667Z,15.80
2018-03-30T09:47:59.251Z,15.90
2018-03-30T09:53:03.106Z,15.50
2018-03-30T09:58:07.704Z,15.10
2018-03-30T10:03:10.783Z,15.20
2018-03-30T10:08:14.996Z,15.20
2018-03-30T10:18:23.333Z,14.00
2018-03-30T10:23:27.203Z,13.50
2018-03-30T10:28:31.434Z,14.30
2018-03-30T10:33:35.286Z,14.20
2018-03-30T10:38:38.376Z,14.10
2018-03-30T10:43:41.472Z,13.60
2018-03-30T10:53:50.180Z,13.50
2018-03-30T10:58:53.663Z,13.70
2018-03-30T11:03:57.520Z,13.80
2018-03-30T11:09:01.015Z,13.40
2018-03-30T11:14:04.867Z,13.10
2018-03-30T11:19:07.942Z,13.10
2018-03-30T11:24:12.166Z,13.40
2018-03-30T11:29:15.235Z,13.50
2018-03-30T11:34:18.327Z,13.70
2018-03-30T11:39:21.430Z,13.80
2018-03-30T11:49:30.091Z,13.10
2018-03-30T11:59:37.595Z,13.00
2018-03-30T12:04:41.442Z,13.10
2018-03-30T12:09:45.421Z,13.30
2018-03-30T12:14:49.294Z,13.50
2018-03-30T12:19:53.512Z,13.30
2018-03-30T12:24:56.592Z,13.40
2018-03-30T12:29:59.679Z,13.60
2018-03-30T12:35:02.847Z,13.90
2018-03-30T12:40:06.806Z,14.10
2018-03-30T12:45:10.829Z,13.90
2018-03-30T12:50:14.293Z,14.00
2018-03-30T12:55:17.377Z,14.20
2018-03-30T13:05:24.933Z,13.90
2018-03-30T13:10:28.016Z,13.80
2018-03-30T13:15:32.249Z,13.90
2018-03-30T13:25:40.674Z,14.00
2018-03-30T13:30:44.131Z,14.00
2018-03-30T13:35:47.202Z,14.00
2018-03-30T13:40:51.062Z,14.00
2018-03-30T13:45:54.237Z,14.00
2018-03-30T13:51:18.459Z,14.10
2018-03-30T13:56:39.863Z,14.10
2018-03-30T14:02:08.999Z,14.00
2018-03-30T14:12:54.652Z,14.20
2018-03-30T14:18:00.926Z,14.10
2018-03-30T14:23:24.856Z,14.00
2018-03-30T14:28:43.158Z,14.20
2018-03-30T14:33:46.953Z,14.20
2018-03-30T14:39:10.827Z,14.30
2018-03-30T14:44:17.395Z,14.20
2018-03-30T14:49:21.864Z,14.30
2018-03-30T14:54:30.777Z,14.30
2018-03-30T14:59:40.724Z,14.30
2018-03-30T15:10:39.537Z,14.10
2018-03-30T15:26:55.020Z,13.70
2018-03-30T15:32:06.529Z,13.70
2018-03-30T15:37:17.491Z,13.60
2018-03-30T15:42:20.561Z,13.50
2018-03-30T15:47:24.419Z,13.50
2018-03-30T15:52:31.131Z,13.40
2018-03-30T15:57:34.967Z,13.40
2018-03-30T16:07:43.625Z,13.50
2018-03-30T16:12:47.056Z,13.40
2018-03-30T16:17:50.890Z,13.50
2018-03-30T16:22:53.434Z,13.60
2018-03-30T16:27:55.761Z,13.60
2018-03-30T16:32:58.477Z,13.50
2018-03-30T16:38:02.299Z,13.50
2018-03-30T16:43:04.620Z,13.40
2018-03-30T16:48:08.042Z,13.20
2018-03-30T16:53:10.409Z,13.10
2018-03-30T16:58:13.855Z,13.00
2018-03-30T17:03:16.180Z,12.90
2018-03-30T17:08:18.521Z,12.80
2018-03-30T17:13:21.276Z,12.80
2018-03-30T17:18:23.598Z,12.70
2018-03-30T17:23:26.678Z,12.60
2018-03-30T17:28:29.015Z,12.60
2018-03-30T17:33:32.478Z,12.40
2018-03-30T17:38:35.560Z,12.30
2018-03-30T17:43:37.916Z,12.20
2018-03-30T17:53:46.140Z,11.90
2018-03-30T17:58:48.680Z,11.70
2018-03-30T18:03:52.508Z,11.60
2018-03-30T18:08:55.609Z,11.40
2018-03-30T18:13:58.704Z,11.40
2018-03-30T18:19:01.436Z,11.30
2018-03-30T18:24:04.509Z,11.20
2018-03-30T18:29:07.617Z,11.10
2018-03-30T18:34:10.354Z,11.10
2018-03-30T18:39:13.443Z,11.00
2018-03-30T18:49:20.455Z,10.90
2018-03-30T18:54:23.549Z,10.80
2018-03-30T18:59:29.630Z,10.80
2018-03-30T19:09:36.558Z,10.70
2018-03-30T19:14:39.287Z,10.70
2018-03-30T19:19:41.612Z,10.70
2018-03-30T19:24:44.699Z,10.70
2018-03-30T19:29:47.413Z,10.60
2018-03-30T19:34:50.492Z,10.50
2018-03-30T19:39:52.811Z,10.30
2018-03-30T19:44:55.531Z,10.20
2018-03-30T19:49:57.860Z,10.00
2018-03-30T19:55:01.668Z,9.70
2018-03-30T20:05:07.910Z,9.50
2018-03-30T20:10:10.869Z,9.30
2018-03-30T20:15:14.683Z,9.20
2018-03-30T20:20:17.029Z,9.10
2018-03-30T20:25:19.327Z,9.00
2018-03-30T20:30:22.780Z,9.00
2018-03-30T20:35:26.600Z,8.90
2018-03-30T20:40:28.931Z,8.80
2018-03-30T20:45:32.029Z,8.90
2018-03-30T20:55:38.282Z,8.90
2018-03-30T21:05:46.094Z,9.00
2018-03-30T21:10:49.187Z,8.90
2018-03-30T21:15:51.508Z,8.90
2018-03-30T21:20:54.212Z,8.90
2018-03-30T21:25:56.524Z,8.80
2018-03-30T21:30:59.613Z,8.80
2018-03-30T21:36:01.920Z,8.70
2018-03-30T21:41:05.020Z,8.70
2018-03-30T21:51:11.361Z,8.70
2018-03-30T21:56:14.078Z,8.50
2018-03-30T22:11:24.276Z,8.60
2018-03-30T22:21:30.919Z,8.30
2018-03-30T22:26:34.696Z,8.30
2018-03-30T22:31:37.085Z,8.30
2018-03-30T22:36:39.731Z,8.10
2018-03-30T22:46:46.015Z,7.90
2018-03-30T22:51:48.629Z,7.80
2018-03-30T22:56:51.723Z,7.80
2018-03-30T23:01:55.560Z,7.60
2018-03-30T23:12:03.768Z,7.20
2018-03-30T23:17:07.084Z,7.20
2018-03-30T23:27:14.122Z,7.00
2018-03-30T23:32:17.254Z,6.90
2018-03-30T23:42:23.513Z,6.80
2018-03-30T23:52:30.016Z,6.70
2018-03-30T23:57:33.103Z,6.50
